Disney Magic — C6PT7 — position and weather

sailwx.info

Track history (hours):
 
Tides and Currents Weather Stations Pressure Air Temp Water Temp Dewpoint Dewpoint Depression Visibility Wind Speed Wind Dir Waves Ship Positions

Disney Magic

Last reported at 2016-Jun-20 19:33 UTC. Time now 2016-Jun-26 03:01 UTC.
Position N 59°27' W 004°00'.

Type: Passenger vessel. MMSI: 308516000.

Date/timePositionNaut miles runAvg speedWind from/ knotsBaromVisibWave heightAir tempDewpointWater temp
2016-Jun-20 19:33N 59°27' W 004°00'1818.2
2016-Jun-20 18:34N 59°19' W 003°28'1919.2
2016-Jun-20 17:33N 59°11' W 002°54'1010.3
2016-Jun-20 16:33N 59°01' W 002°54'2 2.3
2016-Jun-20 15:33N 59°00' W 002°59'0 0.0
2016-Jun-20 14:33N 59°00' W 002°59'0 0.0
2016-Jun-20 13:33N 59°00' W 002°59'0 0.0
2016-Jun-20 12:33N 59°00' W 002°59'0 0.0
2016-Jun-20 11:33N 59°00' W 002°59'0 0.0
2016-Jun-20 10:33N 59°00' W 002°59'0 0.0
2016-Jun-20 09:33N 59°00' W 002°59'0 0.0
2016-Jun-20 08:33N 59°00' W 002°59'0 0.0
2016-Jun-20 07:33N 59°00' W 002°59'0 0.0
2016-Jun-20 06:33N 59°00' W 002°59'7 7.4
2016-Jun-20 05:33N 59°00' W 002°44'1716.8
2016-Jun-20 04:33N 58°52' W 002°15'8020.0
2016-Jun-20 00:33N 57°36' W 001°31'12721.0
2016-Jun-19 18:32N 55°29' W 001°18'2121.2
2016-Jun-19 17:33N 55°09' W 001°16'1111.4
2016-Jun-19 16:33N 54°59' W 001°27'0 0.4
2016-Jun-19 15:32N 54°60' W 001°27'0 0.0
2016-Jun-19 14:32N 54°60' W 001°27'0 0.0
2016-Jun-19 13:29N 54°60' W 001°27'0 0.0
2016-Jun-19 12:32N 54°60' W 001°27'0 0.0
2016-Jun-19 11:32N 54°60' W 001°27'0 0.0
2016-Jun-19 10:32N 54°60' W 001°27'0 0.0
2016-Jun-19 09:32N 54°60' W 001°27'0 0.0
2016-Jun-19 08:32N 54°60' W 001°27'0 0.0
2016-Jun-19 07:32N 54°60' W 001°27'0 0.0
2016-Jun-19 06:32N 54°60' W 001°27'0 0.0
2016-Jun-19 05:32N 54°60' W 001°27'6 5.7
2016-Jun-19 04:34N 55°02' W 001°18'8 8.1
2016-Jun-19 03:33N 55°01' W 001°04'8 8.0
2016-Jun-19 02:33N 55°01' W 000°50'8 7.7
2016-Jun-19 01:34N 55°01' W 000°36'7 7.5
2016-Jun-19 00:33N 55°03' W 000°24'7 7.3
2016-Jun-18 23:33N 54°55' W 000°24'8 8.1
2016-Jun-18 22:33N 54°47' W 000°27'10 9.8
2016-Jun-18 21:33N 54°40' W 000°17'1120.2
2016-Jun-18 21:00N 54°30' W 000°06'1 2.6 330 / 51025.3 5.4 11.8 6.611.1
2016-Jun-18 20:34N 54°31' W 000°06'814.2
2016-Jun-18 20:00N 54°24' E 000°00'3 5.8 330 / 51025.310.8 11.8 6.611.1
2016-Jun-18 19:33N 54°23' E 000°04'10 9.7
2016-Jun-18 18:33N 54°15' E 000°15'9 9.2
2016-Jun-18 17:34N 54°07' E 000°22'9 8.5
2016-Jun-18 16:33N 53°60' E 000°28'8 8.0
2016-Jun-18 15:33N 53°53' E 000°36'20 8.2
2016-Jun-18 13:05N 53°36' E 000°55'5 9.5
2016-Jun-18 12:33N 53°32' E 000°59'1010.0
2016-Jun-18 11:33N 53°23' E 001°06'1010.2
2016-Jun-18 10:33N 53°13' E 001°13'10 9.8
2016-Jun-18 09:33N 53°11' E 001°29'10 9.8
2016-Jun-18 08:33N 53°09' E 001°45'9 8.8
2016-Jun-18 07:33N 53°04' E 001°57'8 8.3
2016-Jun-18 06:33N 52°59' E 002°08'51 8.4
2016-Jun-18 00:33N 52°09' E 002°01'1110.7
2016-Jun-17 23:33N 51°59' E 001°53'1111.0
2016-Jun-17 22:33N 51°49' E 001°48'1110.6
2016-Jun-17 21:33N 51°38' E 001°49'1010.2
2016-Jun-17 20:33N 51°28' E 001°47'9 9.2
2016-Jun-17 19:33N 51°19' E 001°43'8 7.6
2016-Jun-17 18:33N 51°12' E 001°38'7 6.9
2016-Jun-17 17:33N 51°08' E 001°30'7 6.1
2016-Jun-17 16:29N 51°07' E 001°19'0 0.0
2016-Jun-17 15:32N 51°07' E 001°19'0 0.0
2016-Jun-17 14:23N 51°07' E 001°19'0 0.0
2016-Jun-17 13:29N 51°07' E 001°19'0 0.0
2016-Jun-17 12:32N 51°07' E 001°19'0 0.0
2016-Jun-17 11:32N 51°07' E 001°19'0 0.0
2016-Jun-17 10:32N 51°07' E 001°19'0 0.0
2016-Jun-17 09:29N 51°07' E 001°19'0 0.0
2016-Jun-17 08:33N 51°07' E 001°19'0 0.0
2016-Jun-17 07:29N 51°07' E 001°19'0 0.0
2016-Jun-17 06:32N 51°07' E 001°19'0 0.0
2016-Jun-17 05:32N 51°07' E 001°19'0 0.0
2016-Jun-17 04:32N 51°07' E 001°19'3 3.3
2016-Jun-17 03:33N 51°08' E 001°24'10 9.8
2016-Jun-17 02:33N 50°58' E 001°28'5016.8
2016-Jun-16 23:34N 50°26' E 000°26'2020.1
2016-Jun-16 22:33N 50°20' W 000°04'1717.2
2016-Jun-16 21:33N 50°15' W 000°30'4119.3
2016-Jun-16 19:25N 50°04' W 001°32'5213.3
2016-Jun-16 15:28N 49°28' W 002°30'0 0.0
2016-Jun-16 13:28N 49°28' W 002°30'0 0.0
2016-Jun-16 07:31N 49°28' W 002°30'25 5.7
2016-Jun-16 03:04N 49°46' W 002°03'2616.0
2016-Jun-16 01:25N 49°51' W 001°23'1618.8
2016-Jun-16 00:33N 49°51' W 000°58'1515.4
2016-Jun-15 23:33N 49°43' W 000°38'1616.4
2016-Jun-15 22:33N 49°34' W 000°17'1515.2
2016-Jun-15 21:34N 49°29' E 000°05'1 1.0
2016-Jun-15 20:33N 49°29' E 000°07'0 0.0
2016-Jun-15 19:33N 49°29' E 000°07'0 0.0
2016-Jun-15 18:33N 49°29' E 000°07'0 0.0
2016-Jun-15 17:33N 49°29' E 000°07'0 0.0
2016-Jun-15 16:33N 49°29' E 000°07'0 0.0
2016-Jun-15 15:33N 49°29' E 000°07'0 0.0
2016-Jun-15 14:33N 49°29' E 000°07'0 0.0
2016-Jun-15 13:33N 49°29' E 000°07'0 0.0
2016-Jun-15 12:33N 49°29' E 000°07'0 0.0
2016-Jun-15 11:33N 49°29' E 000°07'0 0.0
2016-Jun-15 10:33N 49°29' E 000°07'0 0.0
2016-Jun-15 09:33N 49°29' E 000°07'0 0.0
2016-Jun-15 08:33N 49°29' E 000°07'0 0.0
2016-Jun-15 07:33N 49°29' E 000°07'0 0.0
2016-Jun-15 06:33N 49°29' E 000°07'0 0.0
2016-Jun-15 05:30N 49°29' E 000°07'0 0.0
2016-Jun-15 04:33N 49°29' E 000°07'8 8.1
2016-Jun-15 03:34N 49°31' W 000°05'9 9.3
2016-Jun-15 02:34N 49°36' W 000°18'10 9.5
2016-Jun-15 01:34N 49°41' W 000°30'10 9.6
2016-Jun-15 00:34N 49°46' W 000°42'1010.1
2016-Jun-14 23:34N 49°52' W 000°56'10 9.3
2016-Jun-14 22:28N 49°56' W 001°10'8 8.7
2016-Jun-14 21:33N 49°57' W 001°22'9 6.0
2016-Jun-14 20:00N 49°54' W 001°36'3811.2 250 / 151000.8 5.4 1.014.912.012.9
2016-Jun-14 16:33N 49°53' W 002°35'1211.6
2016-Jun-14 15:34N 49°50' W 002°53'1111.3
2016-Jun-14 14:34N 49°49' W 003°10'1110.8
2016-Jun-14 13:34N 49°50' W 003°27'1111.0
2016-Jun-14 12:34N 49°50' W 003°44'1110.8
2016-Jun-14 11:34N 49°50' W 004°01'7 5.8
2016-Jun-14 10:22N 49°50' W 004°11'1012.8
2016-Jun-14 09:33N 49°50' W 004°27'1717.4
2016-Jun-14 08:33N 49°50' W 004°54'5112.7
2016-Jun-14 04:34N 50°18' W 006°01'1717.2
2016-Jun-14 03:34N 50°35' W 005°58'1817.4
2016-Jun-14 02:32N 50°53' W 006°01'7016.8
2016-Jun-13 22:20N 52°03' W 005°50'1418.4
2016-Jun-13 21:34N 52°17' W 005°47'6415.8
2016-Jun-13 17:30N 53°21' W 006°00'56 3.5
2016-Jun-13 01:30N 53°41' W 004°33'1616.9
2016-Jun-13 00:33N 53°40' W 004°06'1717.3
2016-Jun-12 23:33N 53°34' W 003°38'1515.0
2016-Jun-12 22:33N 53°31' W 003°14'1010.4
2016-Jun-12 21:33N 53°24' W 003°00'0 0.2
2016-Jun-12 20:32N 53°24' W 003°00'0 0.0
2016-Jun-12 19:29N 53°24' W 003°00'0 0.0
2016-Jun-12 18:32N 53°24' W 003°00'0 0.0
2016-Jun-12 17:32N 53°24' W 003°00'0 0.0
2016-Jun-12 16:32N 53°24' W 003°00'0 0.0
2016-Jun-12 15:32N 53°24' W 003°00'0 0.0
2016-Jun-12 14:32N 53°24' W 003°00'0 0.0
2016-Jun-12 13:29N 53°24' W 003°00'0 0.0
2016-Jun-12 12:32N 53°24' W 003°00'0 0.0
2016-Jun-12 11:32N 53°24' W 003°00'0 0.0
2016-Jun-12 10:32N 53°24' W 003°00'0 0.0
2016-Jun-12 09:32N 53°24' W 003°00'0 0.0
2016-Jun-12 08:32N 53°24' W 003°00'0 0.0
2016-Jun-12 07:32N 53°24' W 003°00'0 0.0
2016-Jun-12 06:32N 53°24' W 003°00'16 8.3
2016-Jun-12 04:33N 53°31' W 003°25'1414.0
2016-Jun-12 03:33N 53°33' W 003°48'1514.7
2016-Jun-12 02:33N 53°40' W 004°10'1715.4
2016-Jun-12 01:28N 53°48' W 004°34'1617.8
2016-Jun-12 00:33N 53°58' W 004°56'1818.1
2016-Jun-11 23:34N 54°15' W 005°06'1818.2
2016-Jun-11 22:34N 54°33' W 005°12'1918.8
2016-Jun-11 21:34N 54°51' W 005°23'2019.9
2016-Jun-11 20:33N 55°10' W 005°11'2221.2
2016-Jun-11 19:32N 55°29' W 004°55'2118.6
2016-Jun-11 18:26N 55°50' W 004°57'1011.8
2016-Jun-11 17:33N 55°58' W 004°46'1 0.5
2016-Jun-11 16:29N 55°57' W 004°46'0 0.0
2016-Jun-11 15:32N 55°57' W 004°46'0 0.0
2016-Jun-11 14:32N 55°57' W 004°46'0 0.0
2016-Jun-11 13:29N 55°57' W 004°46'0 0.0
2016-Jun-11 12:32N 55°57' W 004°46'0 0.0
2016-Jun-11 11:32N 55°57' W 004°46'0 0.0
2016-Jun-11 10:32N 55°57' W 004°46'0 0.0
2016-Jun-11 09:32N 55°57' W 004°46'0 0.0
2016-Jun-11 08:32N 55°57' W 004°46'0 0.0
2016-Jun-11 07:29N 55°57' W 004°46'0 0.0
2016-Jun-11 06:32N 55°57' W 004°46'0 0.0
2016-Jun-11 05:34N 55°57' W 004°46'10 9.5
2016-Jun-11 04:33N 55°50' W 004°57'1510.6
2016-Jun-11 03:10N 55°35' W 004°57'6 9.0
2016-Jun-11 02:33N 55°30' W 004°56'19 9.0
2016-Jun-11 00:27N 55°16' W 005°19'9 9.8
2016-Jun-10 23:33N 55°11' W 005°32'10 9.9
2016-Jun-10 22:33N 55°11' W 005°49'1111.2
2016-Jun-10 21:33N 55°19' W 006°04'1514.8
2016-Jun-10 20:33N 55°25' W 006°27'1616.2
2016-Jun-10 19:33N 55°32' W 006°52'  
Track history (hours):
 
Tides and Currents Weather Stations Pressure Air Temp Water Temp Dewpoint Dewpoint Depression Visibility Wind Speed Wind Dir Waves Ship Positions

Disney Magic

Last reported at 2016-Jun-20 19:33 UTC. Time now 2016-Jun-26 03:01 UTC.
Position N 59°27' W 004°00'.

Type: Passenger vessel. MMSI: 308516000.

Date/timePositionNaut miles runAvg speedWind from/ knotsBaromVisibWave heightAir tempDewpointWater temp
2016-Jun-20 19:33N 59°27' W 004°00'1818.2
2016-Jun-20 18:34N 59°19' W 003°28'1919.2
2016-Jun-20 17:33N 59°11' W 002°54'1010.3
2016-Jun-20 16:33N 59°01' W 002°54'2 2.3
2016-Jun-20 15:33N 59°00' W 002°59'0 0.0
2016-Jun-20 14:33N 59°00' W 002°59'0 0.0
2016-Jun-20 13:33N 59°00' W 002°59'0 0.0
2016-Jun-20 12:33N 59°00' W 002°59'0 0.0
2016-Jun-20 11:33N 59°00' W 002°59'0 0.0
2016-Jun-20 10:33N 59°00' W 002°59'0 0.0
2016-Jun-20 09:33N 59°00' W 002°59'0 0.0
2016-Jun-20 08:33N 59°00' W 002°59'0 0.0
2016-Jun-20 07:33N 59°00' W 002°59'0 0.0
2016-Jun-20 06:33N 59°00' W 002°59'7 7.4
2016-Jun-20 05:33N 59°00' W 002°44'1716.8
2016-Jun-20 04:33N 58°52' W 002°15'8020.0
2016-Jun-20 00:33N 57°36' W 001°31'12721.0
2016-Jun-19 18:32N 55°29' W 001°18'2121.2
2016-Jun-19 17:33N 55°09' W 001°16'1111.4
2016-Jun-19 16:33N 54°59' W 001°27'0 0.4
2016-Jun-19 15:32N 54°60' W 001°27'0 0.0
2016-Jun-19 14:32N 54°60' W 001°27'0 0.0
2016-Jun-19 13:29N 54°60' W 001°27'0 0.0
2016-Jun-19 12:32N 54°60' W 001°27'0 0.0
2016-Jun-19 11:32N 54°60' W 001°27'0 0.0
2016-Jun-19 10:32N 54°60' W 001°27'0 0.0
2016-Jun-19 09:32N 54°60' W 001°27'0 0.0
2016-Jun-19 08:32N 54°60' W 001°27'0 0.0
2016-Jun-19 07:32N 54°60' W 001°27'0 0.0
2016-Jun-19 06:32N 54°60' W 001°27'0 0.0
2016-Jun-19 05:32N 54°60' W 001°27'6 5.7
2016-Jun-19 04:34N 55°02' W 001°18'8 8.1
2016-Jun-19 03:33N 55°01' W 001°04'8 8.0
2016-Jun-19 02:33N 55°01' W 000°50'8 7.7
2016-Jun-19 01:34N 55°01' W 000°36'7 7.5
2016-Jun-19 00:33N 55°03' W 000°24'7 7.3
2016-Jun-18 23:33N 54°55' W 000°24'8 8.1
2016-Jun-18 22:33N 54°47' W 000°27'10 9.8
2016-Jun-18 21:33N 54°40' W 000°17'1120.2
2016-Jun-18 21:00N 54°30' W 000°06'1 2.6 330 / 51025.3 5.4 11.8 6.611.1
2016-Jun-18 20:34N 54°31' W 000°06'814.2
2016-Jun-18 20:00N 54°24' E 000°00'3 5.8 330 / 51025.310.8 11.8 6.611.1
2016-Jun-18 19:33N 54°23' E 000°04'10 9.7
2016-Jun-18 18:33N 54°15' E 000°15'9 9.2
2016-Jun-18 17:34N 54°07' E 000°22'9 8.5
2016-Jun-18 16:33N 53°60' E 000°28'8 8.0
2016-Jun-18 15:33N 53°53' E 000°36'20 8.2
2016-Jun-18 13:05N 53°36' E 000°55'5 9.5
2016-Jun-18 12:33N 53°32' E 000°59'1010.0
2016-Jun-18 11:33N 53°23' E 001°06'1010.2
2016-Jun-18 10:33N 53°13' E 001°13'10 9.8
2016-Jun-18 09:33N 53°11' E 001°29'10 9.8
2016-Jun-18 08:33N 53°09' E 001°45'9 8.8
2016-Jun-18 07:33N 53°04' E 001°57'8 8.3
2016-Jun-18 06:33N 52°59' E 002°08'51 8.4
2016-Jun-18 00:33N 52°09' E 002°01'1110.7
2016-Jun-17 23:33N 51°59' E 001°53'1111.0
2016-Jun-17 22:33N 51°49' E 001°48'1110.6
2016-Jun-17 21:33N 51°38' E 001°49'1010.2
2016-Jun-17 20:33N 51°28' E 001°47'9 9.2
2016-Jun-17 19:33N 51°19' E 001°43'8 7.6
2016-Jun-17 18:33N 51°12' E 001°38'7 6.9
2016-Jun-17 17:33N 51°08' E 001°30'7 6.1
2016-Jun-17 16:29N 51°07' E 001°19'0 0.0
2016-Jun-17 15:32N 51°07' E 001°19'0 0.0
2016-Jun-17 14:23N 51°07' E 001°19'0 0.0
2016-Jun-17 13:29N 51°07' E 001°19'0 0.0
2016-Jun-17 12:32N 51°07' E 001°19'0 0.0
2016-Jun-17 11:32N 51°07' E 001°19'0 0.0
2016-Jun-17 10:32N 51°07' E 001°19'0 0.0
2016-Jun-17 09:29N 51°07' E 001°19'0 0.0
2016-Jun-17 08:33N 51°07' E 001°19'0 0.0
2016-Jun-17 07:29N 51°07' E 001°19'0 0.0
2016-Jun-17 06:32N 51°07' E 001°19'0 0.0
2016-Jun-17 05:32N 51°07' E 001°19'0 0.0
2016-Jun-17 04:32N 51°07' E 001°19'3 3.3
2016-Jun-17 03:33N 51°08' E 001°24'10 9.8
2016-Jun-17 02:33N 50°58' E 001°28'5016.8
2016-Jun-16 23:34N 50°26' E 000°26'2020.1
2016-Jun-16 22:33N 50°20' W 000°04'1717.2
2016-Jun-16 21:33N 50°15' W 000°30'4119.3
2016-Jun-16 19:25N 50°04' W 001°32'5213.3
2016-Jun-16 15:28N 49°28' W 002°30'0 0.0
2016-Jun-16 13:28N 49°28' W 002°30'0 0.0
2016-Jun-16 07:31N 49°28' W 002°30'25 5.7
2016-Jun-16 03:04N 49°46' W 002°03'2616.0
2016-Jun-16 01:25N 49°51' W 001°23'1618.8
2016-Jun-16 00:33N 49°51' W 000°58'1515.4
2016-Jun-15 23:33N 49°43' W 000°38'1616.4
2016-Jun-15 22:33N 49°34' W 000°17'1515.2
2016-Jun-15 21:34N 49°29' E 000°05'1 1.0
2016-Jun-15 20:33N 49°29' E 000°07'0 0.0
2016-Jun-15 19:33N 49°29' E 000°07'0 0.0
2016-Jun-15 18:33N 49°29' E 000°07'0 0.0
2016-Jun-15 17:33N 49°29' E 000°07'0 0.0
2016-Jun-15 16:33N 49°29' E 000°07'0 0.0
2016-Jun-15 15:33N 49°29' E 000°07'0 0.0
2016-Jun-15 14:33N 49°29' E 000°07'0 0.0
2016-Jun-15 13:33N 49°29' E 000°07'0 0.0
2016-Jun-15 12:33N 49°29' E 000°07'0 0.0
2016-Jun-15 11:33N 49°29' E 000°07'0 0.0
2016-Jun-15 10:33N 49°29' E 000°07'0 0.0
2016-Jun-15 09:33N 49°29' E 000°07'0 0.0
2016-Jun-15 08:33N 49°29' E 000°07'0 0.0
2016-Jun-15 07:33N 49°29' E 000°07'0 0.0
2016-Jun-15 06:33N 49°29' E 000°07'0 0.0
2016-Jun-15 05:30N 49°29' E 000°07'0 0.0
2016-Jun-15 04:33N 49°29' E 000°07'8 8.1
2016-Jun-15 03:34N 49°31' W 000°05'9 9.3
2016-Jun-15 02:34N 49°36' W 000°18'10 9.5
2016-Jun-15 01:34N 49°41' W 000°30'10 9.6
2016-Jun-15 00:34N 49°46' W 000°42'1010.1
2016-Jun-14 23:34N 49°52' W 000°56'10 9.3
2016-Jun-14 22:28N 49°56' W 001°10'8 8.7
2016-Jun-14 21:33N 49°57' W 001°22'9 6.0
2016-Jun-14 20:00N 49°54' W 001°36'3811.2 250 / 151000.8 5.4 1.014.912.012.9
2016-Jun-14 16:33N 49°53' W 002°35'1211.6
2016-Jun-14 15:34N 49°50' W 002°53'1111.3
2016-Jun-14 14:34N 49°49' W 003°10'1110.8
2016-Jun-14 13:34N 49°50' W 003°27'1111.0
2016-Jun-14 12:34N 49°50' W 003°44'1110.8
2016-Jun-14 11:34N 49°50' W 004°01'7 5.8
2016-Jun-14 10:22N 49°50' W 004°11'1012.8
2016-Jun-14 09:33N 49°50' W 004°27'1717.4
2016-Jun-14 08:33N 49°50' W 004°54'5112.7
2016-Jun-14 04:34N 50°18' W 006°01'1717.2
2016-Jun-14 03:34N 50°35' W 005°58'1817.4
2016-Jun-14 02:32N 50°53' W 006°01'7016.8
2016-Jun-13 22:20N 52°03' W 005°50'1418.4
2016-Jun-13 21:34N 52°17' W 005°47'6415.8
2016-Jun-13 17:30N 53°21' W 006°00'56 3.5
2016-Jun-13 01:30N 53°41' W 004°33'1616.9
2016-Jun-13 00:33N 53°40' W 004°06'1717.3
2016-Jun-12 23:33N 53°34' W 003°38'1515.0
2016-Jun-12 22:33N 53°31' W 003°14'1010.4
2016-Jun-12 21:33N 53°24' W 003°00'0 0.2
2016-Jun-12 20:32N 53°24' W 003°00'0 0.0
2016-Jun-12 19:29N 53°24' W 003°00'0 0.0
2016-Jun-12 18:32N 53°24' W 003°00'0 0.0
2016-Jun-12 17:32N 53°24' W 003°00'0 0.0
2016-Jun-12 16:32N 53°24' W 003°00'0 0.0
2016-Jun-12 15:32N 53°24' W 003°00'0 0.0
2016-Jun-12 14:32N 53°24' W 003°00'0 0.0
2016-Jun-12 13:29N 53°24' W 003°00'0 0.0
2016-Jun-12 12:32N 53°24' W 003°00'0 0.0
2016-Jun-12 11:32N 53°24' W 003°00'0 0.0
2016-Jun-12 10:32N 53°24' W 003°00'0 0.0
2016-Jun-12 09:32N 53°24' W 003°00'0 0.0
2016-Jun-12 08:32N 53°24' W 003°00'0 0.0
2016-Jun-12 07:32N 53°24' W 003°00'0 0.0
2016-Jun-12 06:32N 53°24' W 003°00'16 8.3
2016-Jun-12 04:33N 53°31' W 003°25'1414.0
2016-Jun-12 03:33N 53°33' W 003°48'1514.7
2016-Jun-12 02:33N 53°40' W 004°10'1715.4
2016-Jun-12 01:28N 53°48' W 004°34'1617.8
2016-Jun-12 00:33N 53°58' W 004°56'1818.1
2016-Jun-11 23:34N 54°15' W 005°06'1818.2
2016-Jun-11 22:34N 54°33' W 005°12'1918.8
2016-Jun-11 21:34N 54°51' W 005°23'2019.9
2016-Jun-11 20:33N 55°10' W 005°11'2221.2
2016-Jun-11 19:32N 55°29' W 004°55'2118.6
2016-Jun-11 18:26N 55°50' W 004°57'1011.8
2016-Jun-11 17:33N 55°58' W 004°46'1 0.5
2016-Jun-11 16:29N 55°57' W 004°46'0 0.0
2016-Jun-11 15:32N 55°57' W 004°46'0 0.0
2016-Jun-11 14:32N 55°57' W 004°46'0 0.0
2016-Jun-11 13:29N 55°57' W 004°46'0 0.0
2016-Jun-11 12:32N 55°57' W 004°46'0 0.0
2016-Jun-11 11:32N 55°57' W 004°46'0 0.0
2016-Jun-11 10:32N 55°57' W 004°46'0 0.0
2016-Jun-11 09:32N 55°57' W 004°46'0 0.0
2016-Jun-11 08:32N 55°57' W 004°46'0 0.0
2016-Jun-11 07:29N 55°57' W 004°46'0 0.0
2016-Jun-11 06:32N 55°57' W 004°46'0 0.0
2016-Jun-11 05:34N 55°57' W 004°46'10 9.5
2016-Jun-11 04:33N 55°50' W 004°57'1510.6
2016-Jun-11 03:10N 55°35' W 004°57'6 9.0
2016-Jun-11 02:33N 55°30' W 004°56'19 9.0
2016-Jun-11 00:27N 55°16' W 005°19'9 9.8
2016-Jun-10 23:33N 55°11' W 005°32'10 9.9
2016-Jun-10 22:33N 55°11' W 005°49'1111.2
2016-Jun-10 21:33N 55°19' W 006°04'1514.8
2016-Jun-10 20:33N 55°25' W 006°27'1616.2
2016-Jun-10 19:33N 55°32' W 006°52'  

Dump ship's entire track history